Time;durP1;ratioP1;P1;durP2;ratioP2;P2;SDS_P1;SDS_P2;PMS_P1;PMS_P2;Temp;Humidity;BMP_temperature;BMP_pressure;BME280_temperature;BME280_humidity;BME280_pressure;Samples;Min_cycle;Max_cycle;Signal;HPM_P1;HPM_P2
2022/08/21 00:01:17;;;;;;;17.13;15.53;;;;;;;16.12;100.00;97078.53;5023227;28;20253;-63
2022/08/21 00:03:46;;;;;;;15.90;14.67;;;;;;;16.15;100.00;97083.44;5025000;28;20389;-63
2022/08/21 00:06:15;;;;;;;16.17;14.57;;;;;;;16.03;100.00;97077.16;5028532;28;20656;-60
2022/08/21 00:08:43;;;;;;;15.30;14.20;;;;;;;16.02;100.00;97080.88;5027272;28;20282;-63
2022/08/21 00:11:12;;;;;;;14.43;13.43;;;;;;;15.98;100.00;97077.84;5009121;28;20288;-63
2022/08/21 00:16:33;;;;;;;13.50;12.30;;;;;;;15.96;100.00;97076.41;4970130;28;20405;-61
2022/08/21 00:19:01;;;;;;;16.10;14.70;;;;;;;16.06;100.00;97074.88;5029142;28;20235;-65
2022/08/21 00:21:31;;;;;;;16.20;14.80;;;;;;;16.08;100.00;97069.28;5029551;28;20294;-61
2022/08/21 00:23:59;;;;;;;14.40;13.20;;;;;;;15.94;100.00;97076.66;5031661;28;20203;-64
2022/08/21 00:26:27;;;;;;;14.93;13.73;;;;;;;15.90;100.00;97076.28;5006987;28;20243;-62
2022/08/21 00:28:55;;;;;;;14.53;13.33;;;;;;;15.87;100.00;97071.34;5026863;28;20446;-63
2022/08/21 00:31:25;;;;;;;15.67;14.27;;;;;;;15.92;100.00;97065.38;4970351;28;20573;-62
2022/08/21 00:33:53;;;;;;;15.83;14.43;;;;;;;15.91;100.00;97061.06;5026092;28;20311;-65
2022/08/21 00:36:28;;;;;;;16.63;15.07;;;;;;;15.95;100.00;97058.75;5022800;28;20482;-61
2022/08/21 00:38:58;;;;;;;15.20;13.97;;;;;;;15.95;100.00;97054.25;5028382;28;20626;-64
2022/08/21 00:41:26;;;;;;;15.23;14.00;;;;;;;15.93;100.00;97056.31;5004611;28;20236;-61
2022/08/21 00:44:06;;;;;;;16.27;14.87;;;;;;;15.94;100.00;97054.44;5023852;28;20676;-62
2022/08/21 00:46:34;;;;;;;14.40;13.30;;;;;;;15.81;100.00;97048.19;4970542;28;21380;-65
2022/08/21 00:49:03;;;;;;;15.67;14.37;;;;;;;15.70;100.00;97047.06;4966529;28;20231;-64
2022/08/21 00:51:38;;;;;;;14.47;13.37;;;;;;;15.75;100.00;97057.88;5024135;28;20298;-64
2022/08/21 00:54:08;;;;;;;16.03;14.73;;;;;;;15.87;100.00;97057.97;5020620;28;20313;-64
2022/08/21 00:56:46;;;;;;;14.47;13.37;;;;;;;15.80;100.00;97046.56;5025891;28;20748;-61
2022/08/21 00:59:15;;;;;;;14.07;12.87;;;;;;;15.82;100.00;97049.81;5024430;28;20215;-64
2022/08/21 01:01:43;;;;;;;15.77;14.57;;;;;;;15.89;100.00;97058.59;5029742;28;20224;-60
2022/08/21 01:04:11;;;;;;;14.30;13.10;;;;;;;15.83;100.00;97055.97;4976361;28;20235;-63
2022/08/21 01:06:39;;;;;;;15.37;14.20;;;;;;;15.85;100.00;97048.53;5018327;28;20295;-61
2022/08/21 01:09:08;;;;;;;14.80;13.60;;;;;;;15.96;100.00;97060.38;5022515;28;20255;-64
2022/08/21 01:11:37;;;;;;;14.70;13.50;;;;;;;15.95;100.00;97054.25;5028744;28;20278;-61
2022/08/21 01:14:05;;;;;;;15.70;14.40;;;;;;;15.97;100.00;97052.16;5015414;28;20301;-64
2022/08/21 01:16:33;;;;;;;16.03;14.63;;;;;;;16.00;100.00;97045.53;5030977;28;20235;-64
2022/08/21 01:19:01;;;;;;;16.17;14.87;;;;;;;15.95;100.00;97053.41;4970999;28;21208;-61
2022/08/21 01:21:31;;;;;;;15.77;14.47;;;;;;;15.94;100.00;97049.09;5030464;28;20586;-64
2022/08/21 01:24:00;;;;;;;16.43;15.13;;;;;;;16.00;100.00;97048.22;5022579;28;20505;-65
2022/08/21 01:26:30;;;;;;;16.60;15.30;;;;;;;16.05;100.00;97043.03;5034013;28;20236;-63
2022/08/21 01:29:04;;;;;;;15.17;14.00;;;;;;;16.04;100.00;97044.88;5025247;28;20297;-64
2022/08/21 01:31:33;;;;;;;13.30;12.30;;;;;;;16.05;100.00;97051.03;5038164;28;20207;-64
2022/08/21 01:34:02;;;;;;;13.67;12.67;;;;;;;15.89;100.00;97044.41;4976550;28;20736;-64
2022/08/21 01:36:32;;;;;;;14.03;13.03;;;;;;;15.99;100.00;97041.25;5024435;28;20240;-64
2022/08/21 01:39:00;;;;;;;13.17;12.20;;;;;;;16.01;100.00;97045.34;5026524;28;20232;-64
2022/08/21 01:41:28;;;;;;;14.00;13.00;;;;;;;16.02;100.00;97044.28;5032884;28;20341;-64
2022/08/21 01:43:57;;;;;;;13.20;12.20;;;;;;;16.00;100.00;97040.19;5024366;28;20375;-63
2022/08/21 01:46:25;;;;;;;11.27;10.53;;;;;;;15.89;100.00;97044.41;5032061;28;20816;-64
2022/08/21 01:48:53;;;;;;;12.40;11.53;;;;;;;15.91;100.00;97048.50;5024914;28;20313;-61
2022/08/21 01:51:21;;;;;;;11.30;10.50;;;;;;;15.94;100.00;97041.09;4975758;28;20222;-64
2022/08/21 01:53:50;;;;;;;11.10;10.40;;;;;;;15.97;100.00;97048.66;5027032;28;20302;-61
2022/08/21 01:56:19;;;;;;;11.53;10.73;;;;;;;15.97;100.00;97044.16;5033617;28;20208;-61
2022/08/21 01:58:48;;;;;;;11.50;10.70;;;;;;;15.91;100.00;97039.69;5029491;28;20231;-61
2022/08/21 02:01:16;;;;;;;10.93;10.23;;;;;;;15.91;100.00;97045.03;5033400;28;20299;-63
2022/08/21 02:03:44;;;;;;;10.70;10.00;;;;;;;15.80;100.00;97037.72;5032905;28;20216;-64
2022/08/21 02:06:17;;;;;;;11.43;10.30;;;;;;;15.66;100.00;97056.53;4974764;28;20211;-65
2022/08/21 02:08:46;;;;;;;10.23;9.63;;;;;;;15.69;100.00;97048.09;4994037;28;20227;-64
2022/08/21 02:11:15;;;;;;;11.03;10.27;;;;;;;15.55;100.00;97042.06;5030541;28;20292;-64
2022/08/21 02:13:43;;;;;;;11.73;10.93;;;;;;;15.67;100.00;97038.66;5025073;28;21004;-61
2022/08/21 02:16:12;;;;;;;11.43;10.50;;;;;;;15.67;100.00;97030.63;5030668;28;20314;-63
2022/08/21 02:18:46;;;;;;;11.03;10.20;;;;;;;15.63;100.00;97027.59;5028048;28;20743;-65
2022/08/21 02:21:15;;;;;;;11.37;10.57;;;;;;;15.59;100.00;97031.75;4980719;28;20216;-65
2022/08/21 02:23:43;;;;;;;12.23;11.47;;;;;;;15.47;100.00;97029.00;5020715;28;20208;-62
2022/08/21 02:26:11;;;;;;;11.07;10.37;;;;;;;15.54;100.00;97032.41;5034059;28;20503;-63
2022/08/21 02:28:42;;;;;;;11.03;10.33;;;;;;;15.52;100.00;97030.97;4989211;28;20743;-62
2022/08/21 02:31:10;;;;;;;11.97;10.73;;;;;;;15.56;100.00;97026.88;5026480;28;20775;-62
2022/08/21 02:33:38;;;;;;;10.00;9.40;;;;;;;15.47;100.00;97024.44;5026150;28;20517;-61
2022/08/21 02:36:08;;;;;;;11.30;10.60;;;;;;;15.49;100.00;97029.59;5025524;28;20565;-64
2022/08/21 02:38:38;;;;;;;11.97;10.87;;;;;;;15.45;100.00;97023.84;4967430;28;20918;-61
2022/08/21 02:41:09;;;;;;;11.30;10.60;;;;;;;15.56;100.00;97032.19;5032710;28;20813;-65
2022/08/21 02:43:37;;;;;;;10.83;10.13;;;;;;;15.52;100.00;97037.16;5019608;28;20311;-59
2022/08/21 02:46:07;;;;;;;12.03;11.03;;;;;;;15.43;100.00;97033.13;5023620;28;20251;-64
2022/08/21 02:48:36;;;;;;;10.63;9.93;;;;;;;15.43;100.00;97036.59;5025717;28;20269;-61
2022/08/21 02:51:07;;;;;;;11.53;10.67;;;;;;;15.41;100.00;97028.00;5029300;28;20231;-64
2022/08/21 02:53:36;;;;;;;12.47;11.67;;;;;;;15.52;100.00;97030.97;4973192;28;20298;-60
2022/08/21 02:56:07;;;;;;;11.83;11.03;;;;;;;15.56;100.00;97025.00;4948656;28;20896;-63
2022/08/21 02:58:38;;;;;;;11.20;10.20;;;;;;;15.61;100.00;97035.03;5018419;28;20819;-65
2022/08/21 03:01:09;;;;;;;13.33;12.30;;;;;;;15.63;100.00;97032.94;5022752;28;20708;-64
2022/08/21 03:03:38;;;;;;;11.67;10.87;;;;;;;15.57;100.00;97031.16;5003179;28;20212;-64
2022/08/21 03:06:07;;;;;;;11.13;10.43;;;;;;;15.50;100.00;97025.88;5029423;28;20208;-64
2022/08/21 03:08:36;;;;;;;11.43;10.70;;;;;;;15.56;100.00;97025.00;5032969;28;20265;-64
2022/08/21 03:11:04;;;;;;;10.87;10.17;;;;;;;15.48;100.00;97020.75;4971523;28;20727;-64
2022/08/21 03:13:34;;;;;;;11.60;10.87;;;;;;;15.56;100.00;97027.66;5025220;28;20207;-64
2022/08/21 03:16:03;;;;;;;11.23;10.43;;;;;;;15.59;100.00;97032.56;5022550;28;20401;-65
2022/08/21 03:18:38;;;;;;;10.47;9.77;;;;;;;15.61;100.00;97037.69;5003695;28;20626;-64
2022/08/21 03:21:07;;;;;;;10.40;9.60;;;;;;;15.53;100.00;97036.13;5021128;28;20525;-64
2022/08/21 03:23:35;;;;;;;10.33;9.63;;;;;;;15.41;100.00;97024.53;5019553;28;20281;-64
2022/08/21 03:26:04;;;;;;;10.27;9.57;;;;;;;15.42;100.00;97029.63;4973307;28;21615;-61
2022/08/21 03:28:34;;;;;;;11.93;11.13;;;;;;;15.46;100.00;97033.50;5023085;28;20219;-63
2022/08/21 03:31:03;;;;;;;12.43;11.13;;;;;;;15.50;100.00;97039.22;5023966;28;20855;-64
2022/08/21 03:33:31;;;;;;;11.43;10.53;;;;;;;15.50;100.00;97036.56;4999008;28;20214;-64
2022/08/21 03:36:04;;;;;;;11.93;11.03;;;;;;;15.45;100.00;97037.19;5020191;28;20896;-65
2022/08/21 03:38:34;;;;;;;10.43;9.73;;;;;;;15.41;100.00;97043.22;5023387;28;20308;-64
2022/08/21 03:41:04;;;;;;;10.87;9.97;;;;;;;15.36;100.00;97043.84;5021685;28;20265;-64
2022/08/21 03:43:33;;;;;;;10.43;9.70;;;;;;;15.36;100.00;97040.38;4977197;28;20346;-62
2022/08/21 03:46:02;;;;;;;10.53;9.80;;;;;;;15.29;100.00;97035.91;5021865;28;21009;-65
2022/08/21 03:48:30;;;;;;;11.53;10.63;;;;;;;15.35;100.00;97044.91;5004855;28;20723;-62
2022/08/21 03:50:58;;;;;;;10.70;10.00;;;;;;;15.39;100.00;97042.63;5024289;28;20710;-61
2022/08/21 03:53:28;;;;;;;10.80;10.00;;;;;;;15.47;100.00;97042.34;5029621;28;20389;-64
2022/08/21 03:55:56;;;;;;;9.87;9.20;;;;;;;15.52;100.00;97047.00;5025333;28;20301;-61
2022/08/21 03:58:27;;;;;;;10.77;9.83;;;;;;;15.54;100.00;97050.31;4972931;28;20319;-65
2022/08/21 04:00:58;;;;;;;9.37;8.57;;;;;;;15.43;100.00;97049.16;5022927;28;20511;-60
2022/08/21 04:03:27;;;;;;;8.80;8.20;;;;;;;15.46;100.00;97048.72;5022284;28;20200;-64
2022/08/21 04:05:56;;;;;;;9.33;8.73;;;;;;;15.39;100.00;97047.97;5004464;28;20298;-61
2022/08/21 04:08:24;;;;;;;9.33;8.63;;;;;;;15.16;100.00;97057.34;5033746;28;20277;-65
2022/08/21 04:10:55;;;;;;;9.20;8.60;;;;;;;15.26;100.00;97059.56;5024721;28;20208;-62
2022/08/21 04:13:23;;;;;;;9.43;8.73;;;;;;;15.31;100.00;97068.53;4975428;28;20390;-62
2022/08/21 04:15:52;;;;;;;9.47;8.80;;;;;;;15.29;100.00;97073.25;5025651;28;20326;-60
2022/08/21 04:18:20;;;;;;;8.70;8.00;;;;;;;15.26;100.00;97068.34;5029177;28;20552;-63
2022/08/21 04:20:51;;;;;;;8.13;7.63;;;;;;;15.34;100.00;97069.94;5004994;28;20700;-60
2022/08/21 04:23:19;;;;;;;8.83;8.13;;;;;;;15.35;100.00;97060.91;5023299;28;20265;-64
2022/08/21 04:25:53;;;;;;;8.30;7.43;;;;;;;15.39;100.00;97063.97;5026246;28;20214;-60
2022/08/21 04:28:21;;;;;;;8.07;7.47;;;;;;;15.27;100.00;97062.00;4981987;28;20288;-64
2022/08/21 04:30:54;;;;;;;8.50;7.90;;;;;;;15.33;100.00;97071.78;5023100;28;20235;-60
2022/08/21 04:33:22;;;;;;;9.07;8.37;;;;;;;15.47;100.00;97069.84;5027352;28;20564;-63
2022/08/21 04:35:51;;;;;;;10.53;9.73;;;;;;;15.47;100.00;97077.84;5001432;28;20302;-63
2022/08/21 04:38:20;;;;;;;9.63;8.93;;;;;;;15.45;100.00;97076.44;5029272;28;20644;-65
2022/08/21 04:40:49;;;;;;;10.93;10.03;;;;;;;15.45;100.00;97071.09;5029688;28;20212;-61
2022/08/21 04:43:19;;;;;;;12.07;11.07;;;;;;;15.27;100.00;97071.84;5025470;28;20295;-65
2022/08/21 04:45:48;;;;;;;12.13;11.10;;;;;;;15.38;100.00;97081.03;4971554;28;20329;-60
2022/08/21 04:48:18;;;;;;;12.73;11.73;;;;;;;15.39;100.00;97070.13;5029917;28;20559;-65
2022/08/21 04:50:50;;;;;;;13.50;12.43;;;;;;;15.41;100.00;97081.38;5006520;28;20216;-62
2022/08/21 04:53:24;;;;;;;13.40;12.30;;;;;;;15.48;100.00;97082.16;5031269;28;20233;-65
2022/08/21 04:55:53;;;;;;;13.10;11.93;;;;;;;15.50;100.00;97089.94;5029682;28;20723;-62
2022/08/21 04:58:24;;;;;;;13.33;12.23;;;;;;;15.58;100.00;97088.88;5031421;28;20250;-64
2022/08/21 05:00:53;;;;;;;12.53;11.53;;;;;;;15.56;100.00;97089.06;4969865;28;20745;-61
2022/08/21 05:03:22;;;;;;;11.70;10.80;;;;;;;15.60;100.00;97087.59;4965412;28;20295;-62
2022/08/21 05:05:50;;;;;;;12.17;11.27;;;;;;;15.57;100.00;97092.59;5027576;28;20203;-65
2022/08/21 05:08:21;;;;;;;10.70;9.90;;;;;;;15.46;100.00;97094.91;5004351;28;20812;-61
2022/08/21 05:10:49;;;;;;;11.23;10.27;;;;;;;15.32;100.00;97088.84;5026409;28;20215;-64
2022/08/21 05:13:17;;;;;;;10.87;9.97;;;;;;;15.46;100.00;97096.78;5006810;28;20228;-62
2022/08/21 05:15:47;;;;;;;11.50;10.50;;;;;;;15.46;100.00;97100.25;5026340;28;20235;-66
2022/08/21 05:18:16;;;;;;;10.43;9.53;;;;;;;15.49;100.00;97099.81;4977975;28;20224;-61
2022/08/21 05:20:45;;;;;;;10.93;10.13;;;;;;;15.50;100.00;97097.97;5028312;28;20744;-65
2022/08/21 05:23:15;;;;;;;11.87;10.87;;;;;;;15.55;100.00;97091.97;5027949;28;20451;-62
2022/08/21 05:25:44;;;;;;;11.00;10.10;;;;;;;15.55;100.00;97097.31;5034471;28;20215;-62
2022/08/21 05:28:12;;;;;;;11.90;10.70;;;;;;;15.53;100.00;97097.53;5001793;28;20661;-62
2022/08/21 05:30:41;;;;;;;12.30;11.13;;;;;;;15.47;100.00;97095.72;5030819;28;20242;-64
2022/08/21 05:33:11;;;;;;;11.23;10.33;;;;;;;15.53;100.00;97092.19;4976067;28;20272;-61
2022/08/21 05:35:40;;;;;;;11.30;10.40;;;;;;;15.52;100.00;97098.56;5026515;28;20603;-61
2022/08/21 05:38:08;;;;;;;11.00;10.10;;;;;;;15.51;100.00;97101.44;5032450;28;20649;-62
2022/08/21 05:40:45;;;;;;;12.63;11.63;;;;;;;15.52;100.00;97106.56;5031932;28;20326;-65
2022/08/21 05:43:17;;;;;;;12.20;11.20;;;;;;;15.57;100.00;97103.25;5022341;28;20247;-62
2022/08/21 05:45:46;;;;;;;12.50;11.30;;;;;;;15.53;100.00;97104.72;5027982;28;20203;-65
2022/08/21 05:48:23;;;;;;;12.10;11.20;;;;;;;15.65;100.00;97108.31;5000137;28;20234;-63
2022/08/21 05:50:52;;;;;;;10.73;9.93;;;;;;;15.72;100.00;97111.75;5028221;28;20690;-64
2022/08/21 05:53:22;;;;;;;13.00;11.73;;;;;;;15.77;100.00;97105.75;5029469;28;20246;-62
2022/08/21 05:55:51;;;;;;;11.90;11.00;;;;;;;15.86;100.00;97107.09;5029528;28;20453;-65
2022/08/21 05:58:25;;;;;;;11.97;10.97;;;;;;;15.89;100.00;97109.38;5015000;28;20494;-61
2022/08/21 06:00:53;;;;;;;11.60;10.70;;;;;;;15.86;100.00;97104.44;5030661;28;20698;-63
2022/08/21 06:03:26;;;;;;;12.37;11.47;;;;;;;15.97;100.00;97110.13;4996970;28;20243;-61
2022/08/21 06:05:55;;;;;;;12.13;11.10;;;;;;;15.97;100.00;97096.75;4975273;28;20306;-61
2022/08/21 06:08:24;;;;;;;12.37;11.37;;;;;;;16.10;100.00;97093.97;5021092;28;20297;-61
2022/08/21 06:10:53;;;;;;;12.77;11.67;;;;;;;16.04;100.00;97108.19;5029663;28;20208;-63
2022/08/21 06:13:22;;;;;;;12.27;11.27;;;;;;;16.01;100.00;97100.63;5024585;28;20291;-61
2022/08/21 06:15:51;;;;;;;11.53;10.53;;;;;;;16.02;100.00;97107.59;5006980;28;20262;-63
2022/08/21 06:18:19;;;;;;;11.70;10.80;;;;;;;16.19;100.00;97097.97;5025812;28;20254;-61
2022/08/21 06:20:48;;;;;;;11.53;10.63;;;;;;;16.05;100.00;97102.63;4976570;28;20220;-65
2022/08/21 06:23:17;;;;;;;11.20;10.20;;;;;;;16.02;100.00;97107.59;5025145;28;20710;-60
2022/08/21 06:25:46;;;;;;;12.30;11.20;;;;;;;16.23;100.00;97109.03;5024163;28;20646;-65
2022/08/21 06:28:14;;;;;;;12.73;11.73;;;;;;;16.27;100.00;97104.06;5030948;28;20772;-60
2022/08/21 06:30:42;;;;;;;11.77;10.87;;;;;;;16.34;100.00;97115.50;5013846;28;20727;-65
2022/08/21 06:33:10;;;;;;;12.00;10.93;;;;;;;16.32;100.00;97109.56;5023732;28;20200;-60
2022/08/21 06:35:39;;;;;;;12.60;11.60;;;;;;;16.38;100.00;97103.31;5026245;28;20423;-66
2022/08/21 06:38:10;;;;;;;11.20;10.30;;;;;;;16.32;100.00;97113.06;4977058;28;20494;-62
2022/08/21 06:40:39;;;;;;;11.43;10.53;;;;;;;16.38;100.00;97108.66;5023807;28;20446;-64
2022/08/21 06:43:16;;;;;;;12.07;11.07;;;;;;;16.50;100.00;97103.38;5026725;28;20215;-64
2022/08/21 06:45:45;;;;;;;11.73;10.83;;;;;;;16.70;100.00;97108.50;5032545;28;20676;-64
2022/08/21 06:48:13;;;;;;;12.87;11.77;;;;;;;16.78;100.00;97096.66;5010377;28;20278;-61
2022/08/21 06:50:46;;;;;;;12.10;11.03;;;;;;;16.90;100.00;97097.53;5029284;28;20215;-64
2022/08/21 06:53:19;;;;;;;12.70;11.70;;;;;;;17.00;100.00;97104.22;4971723;28;20220;-62
2022/08/21 06:55:48;;;;;;;12.57;11.50;;;;;;;17.10;100.00;97095.66;5030843;28;20657;-64
2022/08/21 06:58:16;;;;;;;13.57;12.40;;;;;;;17.16;100.00;97098.22;5023742;28;20227;-62
2022/08/21 07:00:46;;;;;;;12.90;11.63;;;;;;;17.14;100.00;97094.97;5027890;28;20203;-63
2022/08/21 07:03:22;;;;;;;12.70;11.63;;;;;;;17.19;100.00;97099.63;5011067;28;20315;-62
2022/08/21 07:05:51;;;;;;;13.27;12.17;;;;;;;17.31;100.00;97092.47;5029251;28;20632;-63
2022/08/21 07:08:21;;;;;;;12.17;11.17;;;;;;;17.28;100.00;97098.28;4977193;28;20318;-62
2022/08/21 07:10:49;;;;;;;13.10;12.10;;;;;;;17.04;100.00;97102.72;4949796;28;20854;-65
2022/08/21 07:13:17;;;;;;;12.37;11.43;;;;;;;17.17;100.00;97101.72;5027002;28;20599;-64
2022/08/21 07:15:46;;;;;;;12.93;11.93;;;;;;;17.25;100.00;97101.41;5009787;28;20248;-64
2022/08/21 07:18:14;;;;;;;13.33;12.27;;;;;;;17.35;100.00;97098.16;5027997;28;20777;-64
2022/08/21 07:20:42;;;;;;;14.67;13.37;;;;;;;17.33;100.00;97102.91;5026695;28;20391;-63
2022/08/21 07:23:13;;;;;;;13.40;12.27;;;;;;;17.49;100.00;97104.13;5029821;28;20583;-64
2022/08/21 07:25:43;;;;;;;13.73;12.63;;;;;;;17.38;100.00;97107.59;4975766;28;20223;-60
2022/08/21 07:28:11;;;;;;;14.37;13.17;;;;;;;17.27;100.00;97103.84;5025506;28;20628;-63
2022/08/21 07:30:40;;;;;;;13.37;12.37;;;;;;;17.29;100.00;97104.44;5025337;28;20201;-61
2022/08/21 07:33:08;;;;;;;14.40;13.20;;;;;;;17.34;100.00;97107.22;5013237;28;20333;-64
2022/08/21 07:35:36;;;;;;;15.87;14.60;;;;;;;17.19;100.00;97116.50;5026612;28;20306;-61
2022/08/21 07:38:04;;;;;;;15.73;14.27;;;;;;;17.08;100.00;97109.28;5025730;28;20236;-64
2022/08/21 07:40:33;;;;;;;13.87;12.73;;;;;;;17.17;100.00;97112.41;4981218;28;20247;-61
2022/08/21 07:43:02;;;;;;;14.97;13.67;;;;;;;17.09;100.00;97110.06;5023114;28;20289;-64
2022/08/21 07:45:31;;;;;;;14.90;13.60;;;;;;;17.13;100.00;97105.91;5026750;28;20207;-62
2022/08/21 07:47:59;;;;;;;15.17;13.87;;;;;;;17.08;100.00;97101.25;5008590;28;21006;-61
2022/08/21 07:50:27;;;;;;;14.30;13.10;;;;;;;17.16;100.00;97105.44;5025164;28;20233;-62
2022/08/21 07:52:55;;;;;;;17.23;15.73;;;;;;;17.17;100.00;97099.88;5023964;28;20662;-64
2022/08/21 07:55:24;;;;;;;16.50;14.90;;;;;;;17.16;100.00;97100.91;4977598;28;20215;-62
2022/08/21 07:57:52;;;;;;;16.87;15.43;;;;;;;17.24;100.00;97104.31;5022931;28;20297;-65
2022/08/21 08:00:25;;;;;;;16.67;15.27;;;;;;;17.33;100.00;97106.44;5028382;28;20203;-64
2022/08/21 08:02:54;;;;;;;16.73;15.33;;;;;;;17.65;100.00;97100.78;5007005;28;20993;-64
2022/08/21 08:05:25;;;;;;;16.27;14.87;;;;;;;17.90;100.00;97112.31;5024355;28;20212;-60
2022/08/21 08:07:54;;;;;;;16.70;15.20;;;;;;;17.76;100.00;97114.41;5027296;28;20917;-63
2022/08/21 08:10:24;;;;;;;17.40;15.87;;;;;;;17.76;100.00;97107.16;5027477;28;20305;-64
2022/08/21 08:12:55;;;;;;;16.57;15.10;;;;;;;17.88;100.00;97109.88;4989713;28;20303;-64
2022/08/21 08:15:26;;;;;;;16.13;14.73;;;;;;;18.09;100.00;97110.38;5032492;28;20592;-62
2022/08/21 08:17:55;;;;;;;17.93;16.33;;;;;;;17.95;100.00;97104.41;5026459;28;20442;-64
2022/08/21 08:20:24;;;;;;;17.70;16.17;;;;;;;17.95;100.00;97112.44;5010923;28;20291;-61
2022/08/21 08:22:53;;;;;;;17.70;15.93;;;;;;;17.74;100.00;97109.28;5025381;28;20203;-64
2022/08/21 08:25:30;;;;;;;18.47;16.70;;;;;;;17.61;100.00;97112.97;5025219;28;20208;-64
2022/08/21 08:28:04;;;;;;;18.00;16.40;;;;;;;17.81;100.00;97106.50;5017796;28;20215;-63
2022/08/21 08:30:46;;;;;;;17.20;15.70;;;;;;;17.86;100.00;97111.97;5024447;28;20820;-61
2022/08/21 08:33:16;;;;;;;18.40;16.70;;;;;;;17.78;100.00;97115.78;5028251;28;20299;-63
2022/08/21 08:35:47;;;;;;;18.17;16.47;;;;;;;17.45;100.00;97113.66;5010416;28;20480;-62
2022/08/21 08:38:19;;;;;;;18.47;16.77;;;;;;;17.73;100.00;97114.88;5032608;28;20772;-62
2022/08/21 08:41:07;;;;;;;18.20;16.50;;;;;;;17.87;100.00;97110.91;5023403;28;20216;-63
2022/08/21 08:43:35;;;;;;;18.80;17.00;;;;;;;18.04;100.00;97113.75;4969964;28;20404;-60
2022/08/21 08:46:10;;;;;;;18.40;16.73;;;;;;;17.96;100.00;97107.88;5025030;28;20246;-60
2022/08/21 08:48:46;;;;;;;20.97;18.97;;;;;;;17.87;100.00;97110.91;5020518;28;20219;-62
2022/08/21 08:51:24;;;;;;;18.43;16.80;;;;;;;17.87;100.00;97116.28;5010624;28;20611;-63
2022/08/21 08:53:54;;;;;;;17.87;16.27;;;;;;;17.90;100.00;97117.69;5020190;28;20215;-64
2022/08/21 08:56:27;;;;;;;19.33;17.50;;;;;;;18.00;100.00;97120.59;5026619;28;20637;-62
2022/08/21 08:59:00;;;;;;;17.53;15.97;;;;;;;18.21;100.00;97121.88;4971526;28;20319;-64
2022/08/21 09:01:30;;;;;;;20.30;18.20;;;;;;;18.05;100.00;97122.59;5021877;28;20204;-61
2022/08/21 09:04:05;;;;;;;18.93;17.30;;;;;;;18.06;100.00;97124.25;5027805;28;20199;-64
2022/08/21 09:06:44;;;;;;;20.00;18.17;;;;;;;17.94;100.00;97124.22;5006615;28;20523;-61
2022/08/21 09:09:26;;;;;;;20.43;18.43;;;;;;;17.78;100.00;97129.19;5027355;28;20227;-62
2022/08/21 09:12:01;;;;;;;20.77;18.77;;;;;;;17.60;100.00;97129.31;5028517;28;20290;-64
2022/08/21 09:14:40;;;;;;;19.93;18.03;;;;;;;17.50;100.00;97132.53;4972674;28;20231;-60
2022/08/21 09:17:18;;;;;;;20.17;18.43;;;;;;;17.58;100.00;97126.84;4965320;28;21054;-61
2022/08/21 09:19:58;;;;;;;20.57;18.57;;;;;;;17.83;100.00;97130.38;5023307;28;20420;-63
2022/08/21 09:22:36;;;;;;;21.00;18.97;;;;;;;17.84;100.00;97129.34;5027079;28;20776;-62
2022/08/21 09:25:12;;;;;;;21.17;19.27;;;;;;;17.85;100.00;97118.38;4998830;28;22292;-62
2022/08/21 09:27:40;;;;;;;20.90;18.87;;;;;;;18.18;100.00;97122.34;5028918;28;20227;-61
2022/08/21 09:30:10;;;;;;;19.43;17.40;;;;;;;18.45;100.00;97121.03;5011523;28;21916;-64
2022/08/21 09:32:43;;;;;;;19.33;17.53;;;;;;;18.52;100.00;97119.88;5019519;28;20343;-60
2022/08/21 09:35:15;;;;;;;21.67;19.67;;;;;;;18.47;100.00;97118.94;5001259;28;20517;-64
2022/08/21 09:37:51;;;;;;;21.13;19.20;;;;;;;18.61;100.00;97123.00;5025874;28;20224;-62
2022/08/21 09:40:31;;;;;;;20.70;18.80;;;;;;;18.68;100.00;97120.16;5030714;28;20227;-64
2022/08/21 09:43:01;;;;;;;22.60;20.57;;;;;;;18.47;100.00;97114.41;5023574;28;20496;-64
2022/08/21 09:45:29;;;;;;;22.53;20.33;;;;;;;18.47;100.00;97119.75;5030115;28;20674;-64
2022/08/21 09:48:14;;;;;;;22.20;20.17;;;;;;;18.75;100.00;97120.88;5012835;28;20234;-60
2022/08/21 09:50:43;;;;;;;22.10;20.10;;;;;;;19.16;100.00;97114.66;4979969;28;20695;-62
2022/08/21 09:53:18;;;;;;;21.30;19.30;;;;;;;19.64;100.00;97110.63;5030304;28;20836;-64
2022/08/21 09:58:41;;;;;;;23.20;21.00;;;;;;;20.20;100.00;97111.75;5032902;28;20598;-65
2022/08/21 10:01:14;;;;;;;20.67;18.87;;;;;;;20.24;100.00;97112.88;5016369;28;20527;-63
2022/08/21 10:04:03;;;;;;;21.50;19.50;;;;;;;20.34;100.00;97113.00;5018017;28;20208;-62
2022/08/21 10:06:31;;;;;;;21.00;19.03;;;;;;;20.79;100.00;97113.88;5027019;28;20611;-64
2022/08/21 10:09:06;;;;;;;19.73;18.03;;;;;;;21.07;100.00;97109.31;5023926;28;20424;-65
2022/08/21 10:11:35;;;;;;;20.03;18.33;;;;;;;20.81;100.00;97108.22;5030810;28;20705;-64
2022/08/21 10:14:13;;;;;;;20.30;18.40;;;;;;;20.67;100.00;97105.09;5028154;28;20785;-64
2022/08/21 10:16:51;;;;;;;19.87;18.13;;;;;;;20.65;100.00;97105.31;5028166;28;20239;-63
2022/08/21 10:19:28;;;;;;;20.43;18.57;;;;;;;20.61;100.00;97103.38;5030643;28;20666;-64
2022/08/21 10:22:10;;;;;;;21.20;19.20;;;;;;;20.63;100.00;97102.06;4976068;28;20381;-62
2022/08/21 10:24:45;;;;;;;22.23;20.13;;;;;;;20.54;100.00;97103.59;5026093;28;20290;-62
2022/08/21 10:27:17;;;;;;;22.00;20.03;;;;;;;20.67;100.00;97103.19;5029325;28;20292;-65
2022/08/21 10:29:50;;;;;;;23.13;20.93;;;;;;;21.51;100.00;97100.28;5032722;28;20227;-62
2022/08/21 10:32:44;;;;;;;25.00;22.70;;;;;;;21.63;100.00;97100.09;5027834;28;20743;-65
2022/08/21 10:35:16;;;;;;;23.07;20.93;;;;;;;22.02;100.00;97090.16;5028770;28;20228;-64
2022/08/21 10:37:53;;;;;;;24.07;21.07;;;;;;;22.15;100.00;97084.28;4980095;28;20621;-59
2022/08/21 10:40:26;;;;;;;22.73;20.63;;;;;;;22.31;100.00;97087.88;5025711;28;20227;-63
2022/08/21 10:43:03;;;;;;;21.77;19.77;;;;;;;22.26;100.00;97091.38;5026845;28;20668;-62
2022/08/21 10:45:40;;;;;;;25.37;22.73;;;;;;;21.81;100.00;97093.53;5036090;28;20297;-64
2022/08/21 10:48:09;;;;;;;22.90;20.60;;;;;;;22.26;100.00;97080.59;5022153;28;20529;-64
2022/08/21 10:50:42;;;;;;;24.73;22.33;;;;;;;22.40;100.00;97086.31;5030631;28;20290;-63
2022/08/21 10:53:29;;;;;;;24.40;22.10;;;;;;;22.25;100.00;97084.34;4977758;28;20579;-63
2022/08/21 10:56:00;;;;;;;23.50;21.30;;;;;;;21.79;100.00;97086.78;5026096;28;20857;-63
2022/08/21 10:58:31;;;;;;;23.10;20.80;;;;;;;21.54;100.00;97088.97;5031782;28;20247;-63
2022/08/21 11:01:05;;;;;;;23.90;21.70;;;;;;;21.46;100.00;97089.44;5024387;28;20215;-64
2022/08/21 11:03:36;;;;;;;23.87;21.57;;;;;;;21.37;100.00;97091.78;5026342;28;20402;-62
2022/08/21 11:06:09;;;;;;;21.83;19.83;;;;;;;21.32;100.00;97089.06;5022488;28;20454;-61
2022/08/21 11:08:41;;;;;;;24.40;22.10;;;;;;;21.60;100.00;97087.16;4979748;28;20238;-65
2022/08/21 11:11:13;;;;;;;24.33;22.03;;;;;;;21.74;100.00;97074.06;5024910;28;20228;-62
2022/08/21 11:13:48;;;;;;;21.63;19.43;;;;;;;22.10;100.00;97084.25;5024472;28;20583;-62
2022/08/21 11:16:20;;;;;;;21.63;19.77;;;;;;;22.49;100.00;97072.34;5032031;28;20333;-64
2022/08/21 11:18:53;;;;;;;21.07;19.23;;;;;;;22.68;100.00;97072.69;5031380;28;20853;-62
2022/08/21 11:21:33;;;;;;;20.73;18.93;;;;;;;22.54;100.00;97070.47;5031708;28;20345;-63
2022/08/21 11:24:05;;;;;;;21.67;19.67;;;;;;;22.39;100.00;97075.78;4974974;28;20508;-64
2022/08/21 11:26:38;;;;;;;21.40;19.40;;;;;;;22.17;100.00;97071.38;4968843;28;20215;-65
2022/08/21 11:29:12;;;;;;;20.27;18.47;;;;;;;22.12;100.00;97069.44;5023230;28;20224;-62
2022/08/21 11:31:53;;;;;;;20.33;18.50;;;;;;;22.26;100.00;97064.41;5028261;28;20536;-65
2022/08/21 11:34:31;;;;;;;18.73;17.20;;;;;;;21.72;100.00;97059.22;5027556;28;20747;-64